createdAt,value
2023-04-25T00:00:18.085Z,47.57
2023-04-25T00:02:44.343Z,49.01
2023-04-25T00:05:10.769Z,47.85
2023-04-25T00:07:36.989Z,47.53
2023-04-25T00:10:03.177Z,47.78
2023-04-25T00:12:29.348Z,48.61
2023-04-25T00:14:55.520Z,46.56
2023-04-25T00:17:21.777Z,47.70
2023-04-25T00:19:47.952Z,47.91
2023-04-25T00:22:14.168Z,46.63
2023-04-25T00:24:40.338Z,47.50
2023-04-25T00:27:06.528Z,47.63
2023-04-25T00:29:32.691Z,49.45
2023-04-25T00:31:59.111Z,48.00
2023-04-25T00:34:25.353Z,46.85
2023-04-25T00:36:51.524Z,43.43
2023-04-25T00:39:17.697Z,45.68
2023-04-25T00:41:43.846Z,45.91
2023-04-25T00:44:10.001Z,46.78
2023-04-25T00:46:36.191Z,48.93
2023-04-25T00:49:02.378Z,49.33
2023-04-25T00:51:28.550Z,50.19
2023-04-25T00:53:54.723Z,50.81
2023-04-25T00:56:20.905Z,49.88
2023-04-25T00:58:47.073Z,51.69
2023-04-25T01:01:15.319Z,51.38
2023-04-25T01:03:41.845Z,52.91
2023-04-25T01:08:45.713Z,50.68
2023-04-25T01:11:11.859Z,51.52
2023-04-25T01:13:38.070Z,51.08
2023-04-25T01:16:04.260Z,49.43
2023-04-25T01:18:30.485Z,46.73
2023-04-25T01:20:56.717Z,47.52
2023-04-25T01:23:22.952Z,49.95
2023-04-25T01:25:49.142Z,49.29
2023-04-25T01:28:15.326Z,48.90
2023-04-25T01:30:41.593Z,49.68
2023-04-25T01:33:07.850Z,50.41
2023-04-25T01:35:34.217Z,51.88
2023-04-25T01:38:00.392Z,52.43
2023-04-25T01:40:26.544Z,50.06
2023-04-25T01:42:52.719Z,48.27
2023-04-25T01:45:18.889Z,45.69
2023-04-25T01:47:45.134Z,47.96
2023-04-25T01:50:11.330Z,47.69
2023-04-25T01:52:37.475Z,47.69
2023-04-25T01:55:03.638Z,48.32
2023-04-25T01:57:29.834Z,48.83
2023-04-25T01:59:56.004Z,49.91
2023-04-25T02:02:22.263Z,50.22
2023-04-25T02:04:48.523Z,50.44
2023-04-25T02:07:14.729Z,48.96
2023-04-25T02:09:40.898Z,47.36
2023-04-25T02:12:07.075Z,47.03
2023-04-25T02:14:33.279Z,48.09
2023-04-25T02:16:59.694Z,49.02
2023-04-25T02:19:26.045Z,46.96
2023-04-25T02:21:52.300Z,43.65
2023-04-25T02:24:18.555Z,45.73
2023-04-25T02:26:44.781Z,46.47
2023-04-25T02:29:11.033Z,47.19
2023-04-25T02:31:37.387Z,47.19
2023-04-25T02:34:03.745Z,47.72
2023-04-25T02:36:29.983Z,48.55
2023-04-25T02:38:56.252Z,47.09
2023-04-25T02:41:22.472Z,47.41
2023-04-25T02:43:49.171Z,47.43
2023-04-25T02:46:16.449Z,47.67
2023-04-25T02:48:45.323Z,48.04
2023-04-25T02:51:11.636Z,49.02
2023-04-25T02:53:37.873Z,51.17
2023-04-25T02:56:04.114Z,54.36
2023-04-25T02:58:30.400Z,55.69
2023-04-25T03:00:56.686Z,56.58
2023-04-25T03:03:23.252Z,55.54
2023-04-25T03:05:49.626Z,57.38
2023-04-25T03:08:15.870Z,54.10
2023-04-25T03:10:42.132Z,56.27
2023-04-25T03:13:08.368Z,56.85
2023-04-25T03:15:34.601Z,57.31
2023-04-25T03:18:00.873Z,57.84
2023-04-25T03:20:27.138Z,56.64
2023-04-25T03:22:53.374Z,58.60
2023-04-25T03:25:19.620Z,58.45
2023-04-25T03:27:45.859Z,56.34
2023-04-25T03:30:12.136Z,56.27
2023-04-25T03:32:38.437Z,56.14
2023-04-25T03:35:04.750Z,53.89
2023-04-25T03:37:31.104Z,55.56
2023-04-25T03:39:57.323Z,53.49
2023-04-25T03:42:23.550Z,56.52
2023-04-25T03:44:49.867Z,57.71
2023-04-25T03:47:16.128Z,59.16
2023-04-25T03:49:42.372Z,58.37
2023-04-25T03:52:08.625Z,60.12
2023-04-25T03:54:34.906Z,58.06
2023-04-25T03:57:01.184Z,59.30
2023-04-25T03:59:27.417Z,59.50
2023-04-25T04:01:53.821Z,60.05
2023-04-25T04:04:20.180Z,58.77
2023-04-25T04:06:46.552Z,57.79
2023-04-25T04:09:12.800Z,57.26
2023-04-25T04:11:39.027Z,57.08
2023-04-25T04:14:05.281Z,56.70
2023-04-25T04:16:33.968Z,56.44
2023-04-25T04:19:00.848Z,59.20
2023-04-25T04:21:27.102Z,57.85
2023-04-25T04:23:53.381Z,59.58
2023-04-25T04:26:19.599Z,59.71
2023-04-25T04:28:45.884Z,62.04
2023-04-25T04:31:12.215Z,61.50
2023-04-25T04:33:38.479Z,60.09
2023-04-25T04:36:04.759Z,60.23
2023-04-25T04:38:30.974Z,62.55
2023-04-25T04:40:57.208Z,62.19
2023-04-25T04:43:23.453Z,62.92
2023-04-25T04:45:49.788Z,61.21
2023-04-25T04:48:16.017Z,62.76
2023-04-25T04:50:42.258Z,63.35
2023-04-25T04:53:08.568Z,62.39
2023-04-25T04:55:34.813Z,60.34
2023-04-25T04:58:01.058Z,60.54
2023-04-25T05:00:29.528Z,61.33
2023-04-25T05:02:56.126Z,64.10
2023-04-25T05:05:22.497Z,62.07
2023-04-25T05:07:48.785Z,64.57
2023-04-25T05:10:15.019Z,64.60
2023-04-25T05:12:41.302Z,66.43
2023-04-25T05:15:07.566Z,67.56
2023-04-25T05:17:33.826Z,67.67
2023-04-25T05:20:00.186Z,67.99
2023-04-25T05:22:26.410Z,66.66
2023-04-25T05:24:55.201Z,65.94
2023-04-25T05:27:22.264Z,64.18
2023-04-25T05:29:48.504Z,62.64
2023-04-25T05:32:14.836Z,61.60
2023-04-25T05:34:41.397Z,60.90
2023-04-25T05:37:07.747Z,63.03
2023-04-25T05:39:34.008Z,63.65
2023-04-25T05:42:00.279Z,64.47
2023-04-25T05:44:26.513Z,63.81
2023-04-25T05:46:52.746Z,62.03
2023-04-25T05:49:19.758Z,61.76
2023-04-25T05:51:46.120Z,63.66
2023-04-25T05:54:12.486Z,64.38
2023-04-25T05:56:38.772Z,67.40
2023-04-25T05:59:05.006Z,68.17
2023-04-25T06:01:31.289Z,67.30
2023-04-25T06:03:57.994Z,65.08
2023-04-25T06:06:24.447Z,65.94
2023-04-25T06:08:50.705Z,63.90
2023-04-25T06:11:17.005Z,63.30
2023-04-25T06:13:43.266Z,62.57
2023-04-25T06:16:09.563Z,61.31
2023-04-25T06:18:35.863Z,64.09
2023-04-25T06:21:02.087Z,64.01
2023-04-25T06:23:28.351Z,65.25
2023-04-25T06:25:54.599Z,65.46
2023-04-25T06:28:20.872Z,68.13
2023-04-25T06:30:47.111Z,70.90
2023-04-25T06:33:13.512Z,72.87
2023-04-25T06:35:39.800Z,68.74
2023-04-25T06:38:06.040Z,69.91
2023-04-25T06:40:32.329Z,70.74
2023-04-25T06:42:58.625Z,69.77
2023-04-25T06:45:24.861Z,66.70
2023-04-25T06:47:51.222Z,64.58
2023-04-25T06:50:17.586Z,62.23
2023-04-25T06:52:43.808Z,61.60
2023-04-25T06:55:10.136Z,59.70
2023-04-25T06:57:36.459Z,62.62
2023-04-25T07:00:02.758Z,63.43
2023-04-25T07:02:29.244Z,65.74
2023-04-25T07:04:56.044Z,64.13
2023-04-25T07:07:22.412Z,63.88
2023-04-25T07:09:48.664Z,65.88
2023-04-25T07:12:14.901Z,66.13
2023-04-25T07:14:41.147Z,68.30
2023-04-25T07:17:07.372Z,65.01
2023-04-25T07:19:33.618Z,65.67
2023-04-25T07:21:59.888Z,65.51
2023-04-25T07:24:26.156Z,60.89
2023-04-25T07:26:52.433Z,60.99
2023-04-25T07:29:18.691Z,63.31
2023-04-25T07:31:45.062Z,62.32
2023-04-25T07:34:11.435Z,62.84
2023-04-25T07:36:37.690Z,65.27
2023-04-25T07:39:03.944Z,64.53
2023-04-25T07:41:30.179Z,63.77
2023-04-25T07:43:56.417Z,65.78
2023-04-25T07:46:22.744Z,71.21
2023-04-25T07:48:49.216Z,72.05
2023-04-25T07:51:15.888Z,72.61
2023-04-25T07:53:42.202Z,72.42
2023-04-25T07:56:08.487Z,70.77
2023-04-25T07:58:34.731Z,72.07
2023-04-25T08:01:01.076Z,69.02
2023-04-25T08:03:27.645Z,65.90
2023-04-25T08:05:54.317Z,66.82
2023-04-25T08:08:20.793Z,64.75
2023-04-25T08:10:47.073Z,65.85
2023-04-25T08:13:13.372Z,62.89
2023-04-25T08:15:39.695Z,61.72
2023-04-25T08:18:06.082Z,61.65
2023-04-25T08:20:32.362Z,61.46
2023-04-25T08:22:58.596Z,64.34
2023-04-25T08:25:24.858Z,66.05
2023-04-25T08:27:51.086Z,68.64
2023-04-25T08:30:17.354Z,67.32
2023-04-25T08:32:43.663Z,66.37
2023-04-25T08:35:09.915Z,67.95
2023-04-25T08:37:36.159Z,66.84
2023-04-25T08:40:02.404Z,67.49
2023-04-25T08:42:28.730Z,66.25
2023-04-25T08:44:55.026Z,65.17
2023-04-25T08:47:21.259Z,69.35
2023-04-25T08:49:47.499Z,69.90
2023-04-25T08:52:13.745Z,66.27
2023-04-25T08:54:41.710Z,64.99
2023-04-25T08:57:08.582Z,64.82
2023-04-25T08:59:36.201Z,63.18
2023-04-25T09:02:04.139Z,63.26
2023-04-25T09:04:30.445Z,61.63
2023-04-25T09:06:56.712Z,60.83
2023-04-25T09:09:22.992Z,59.51
2023-04-25T09:11:49.259Z,61.51
2023-04-25T09:14:15.522Z,65.74
2023-04-25T09:16:41.795Z,62.01
2023-04-25T09:19:08.061Z,59.86
2023-04-25T09:21:34.319Z,66.17
2023-04-25T09:24:00.584Z,65.52
2023-04-25T09:26:26.854Z,64.93
2023-04-25T09:28:53.085Z,64.69
2023-04-25T09:31:19.426Z,63.88
2023-04-25T09:33:45.769Z,61.22
2023-04-25T09:36:12.103Z,60.06
2023-04-25T09:38:38.416Z,56.84
2023-04-25T09:41:04.660Z,61.37
2023-04-25T09:43:30.924Z,60.62
2023-04-25T09:45:58.790Z,58.27
2023-04-25T09:48:25.349Z,60.18
2023-04-25T09:50:51.618Z,54.57
2023-04-25T09:53:17.872Z,56.66
2023-04-25T09:55:44.135Z,57.13
2023-04-25T09:58:10.409Z,57.02
2023-04-25T10:00:36.732Z,58.24
2023-04-25T10:03:03.047Z,57.97
2023-04-25T10:05:29.390Z,60.37
2023-04-25T10:07:55.639Z,53.78
2023-04-25T10:10:21.873Z,55.48
2023-04-25T10:12:48.100Z,54.29
2023-04-25T10:15:14.363Z,55.73
2023-04-25T10:17:40.703Z,55.66
2023-04-25T10:20:06.986Z,55.68
2023-04-25T10:22:33.243Z,57.88
2023-04-25T10:24:59.474Z,58.57
2023-04-25T10:27:25.715Z,57.79
2023-04-25T10:29:51.985Z,61.22
2023-04-25T10:32:18.351Z,63.63
2023-04-25T10:34:44.720Z,62.22
2023-04-25T10:37:10.965Z,63.55
2023-04-25T10:39:37.232Z,59.18
2023-04-25T10:42:03.515Z,58.54
2023-04-25T10:44:29.740Z,55.47
2023-04-25T10:46:56.041Z,55.75
2023-04-25T10:49:22.293Z,55.90
2023-04-25T10:51:55.458Z,54.23
2023-04-25T10:54:22.139Z,54.37
2023-04-25T10:56:48.418Z,55.08
2023-04-25T10:59:14.658Z,52.08
2023-04-25T11:01:40.962Z,54.29
2023-04-25T11:04:07.524Z,52.11
2023-04-25T11:06:33.862Z,49.45
2023-04-25T11:09:00.151Z,49.83
2023-04-25T11:11:26.436Z,48.26
2023-04-25T11:13:52.665Z,49.94
2023-04-25T11:16:27.659Z,49.24
2023-04-25T11:18:54.812Z,50.68
2023-04-25T11:21:21.090Z,46.06
2023-04-25T11:23:47.383Z,44.91
2023-04-25T11:26:13.628Z,46.21
2023-04-25T11:28:39.895Z,46.40
2023-04-25T11:31:06.148Z,46.79
2023-04-25T11:33:32.398Z,48.50
2023-04-25T11:35:58.626Z,49.16
2023-04-25T11:38:26.120Z,47.12
2023-04-25T11:40:53.460Z,49.21
2023-04-25T11:43:21.628Z,47.37
2023-04-25T11:45:48.113Z,45.07
2023-04-25T11:48:15.158Z,47.75
2023-04-25T11:50:41.799Z,48.45
2023-04-25T11:53:08.089Z,51.08
2023-04-25T11:55:34.316Z,48.93
2023-04-25T11:58:00.562Z,49.49
2023-04-25T12:00:26.828Z,49.33
2023-04-25T12:02:53.191Z,47.29
2023-04-25T12:05:31.195Z,51.05
2023-04-25T12:07:58.754Z,46.66
2023-04-25T12:10:25.025Z,46.21
2023-04-25T12:12:51.257Z,47.41
2023-04-25T12:15:17.531Z,45.99
2023-04-25T12:17:43.827Z,48.77
2023-04-25T12:20:10.178Z,48.32
2023-04-25T12:22:36.686Z,51.41
2023-04-25T12:25:03.004Z,49.13
2023-04-25T12:27:29.715Z,48.22
2023-04-25T12:29:56.055Z,48.97
2023-04-25T12:32:22.346Z,47.54
2023-04-25T12:34:48.630Z,47.06
2023-04-25T12:37:14.880Z,46.63
2023-04-25T12:39:41.138Z,49.01
2023-04-25T12:42:09.511Z,51.12
2023-04-25T12:44:36.148Z,49.03
2023-04-25T12:47:02.578Z,49.44
2023-04-25T12:49:28.924Z,52.67
2023-04-25T12:51:55.174Z,48.37
2023-04-25T12:54:21.416Z,49.73
2023-04-25T12:56:47.665Z,49.45
2023-04-25T12:59:13.895Z,49.10
2023-04-25T13:01:40.330Z,48.20
2023-04-25T13:04:06.922Z,46.49
2023-04-25T13:06:33.225Z,48.50
2023-04-25T13:08:59.480Z,45.55
2023-04-25T13:11:25.708Z,46.29
2023-04-25T13:13:52.121Z,46.90
2023-04-25T13:16:18.934Z,45.64
2023-04-25T13:18:45.268Z,48.81
2023-04-25T13:21:11.504Z,48.40
2023-04-25T13:23:37.750Z,46.08
2023-04-25T13:26:03.998Z,46.61
2023-04-25T13:28:31.823Z,46.60
2023-04-25T13:30:58.122Z,46.64
2023-04-25T13:33:24.358Z,44.81
2023-04-25T13:35:50.609Z,45.78
2023-04-25T13:38:16.866Z,45.48
2023-04-25T13:40:43.143Z,46.55
2023-04-25T13:43:09.430Z,45.59
2023-04-25T13:45:35.676Z,47.46
2023-04-25T13:48:02.050Z,46.15
2023-04-25T13:50:28.370Z,45.46
2023-04-25T13:52:54.594Z,45.48
2023-04-25T13:55:20.842Z,46.07
2023-04-25T13:57:47.080Z,45.33
2023-04-25T14:00:13.296Z,43.74
2023-04-25T14:02:39.594Z,46.53
2023-04-25T14:05:05.990Z,44.59
2023-04-25T14:07:32.288Z,44.87
2023-04-25T14:09:58.528Z,42.61
2023-04-25T14:12:24.811Z,45.93
2023-04-25T14:14:51.097Z,40.70
2023-04-25T14:17:17.696Z,42.20
2023-04-25T14:19:44.028Z,41.44
2023-04-25T14:22:10.304Z,43.16
2023-04-25T14:24:36.531Z,38.29
2023-04-25T14:27:02.779Z,39.23
2023-04-25T14:29:29.010Z,39.45
2023-04-25T14:31:55.321Z,37.09
2023-04-25T14:34:21.683Z,38.25
2023-04-25T14:36:47.995Z,39.04
2023-04-25T14:39:14.422Z,35.95
2023-04-25T14:41:40.664Z,36.36
2023-04-25T14:44:08.776Z,36.17
2023-04-25T14:46:35.041Z,37.16
2023-04-25T14:49:01.343Z,39.51
2023-04-25T14:51:27.594Z,35.18
2023-04-25T14:53:54.003Z,38.18
2023-04-25T14:56:20.396Z,35.61
2023-04-25T14:58:46.687Z,35.97
2023-04-25T15:01:12.998Z,35.80
2023-04-25T15:03:39.519Z,37.30
2023-04-25T15:06:05.870Z,35.79
2023-04-25T15:08:32.119Z,36.31
2023-04-25T15:10:59.407Z,36.24
2023-04-25T15:13:25.719Z,35.35
2023-04-25T15:15:52.227Z,35.22
2023-04-25T15:18:18.655Z,35.14
2023-04-25T15:20:44.923Z,36.72
2023-04-25T15:23:11.194Z,39.26
2023-04-25T15:25:37.496Z,37.88
2023-04-25T15:28:03.855Z,35.04
2023-04-25T15:30:30.121Z,36.00
2023-04-25T15:32:56.509Z,37.43
2023-04-25T15:35:22.795Z,35.25
2023-04-25T15:37:49.050Z,39.07
2023-04-25T15:40:15.320Z,39.32
2023-04-25T15:42:41.536Z,37.62
2023-04-25T15:45:07.849Z,37.54
2023-04-25T15:47:34.142Z,40.21
2023-04-25T15:50:00.451Z,36.88
2023-04-25T15:52:26.706Z,37.69
2023-04-25T15:54:52.952Z,40.72
2023-04-25T15:57:19.221Z,38.39
2023-04-25T15:59:45.483Z,38.76
2023-04-25T16:02:11.724Z,39.41
2023-04-25T16:04:38.092Z,39.71
2023-04-25T16:07:04.379Z,40.93
2023-04-25T16:09:31.868Z,40.25
2023-04-25T16:11:59.177Z,39.20
2023-04-25T16:14:25.402Z,39.80
2023-04-25T16:16:51.660Z,39.59
2023-04-25T16:19:17.901Z,40.03
2023-04-25T16:21:44.204Z,40.83
2023-04-25T16:24:10.509Z,40.39
2023-04-25T16:26:36.723Z,39.86
2023-04-25T16:29:02.981Z,41.34
2023-04-25T16:31:29.295Z,39.98
2023-04-25T16:33:55.548Z,41.97
2023-04-25T16:36:21.796Z,41.74
2023-04-25T16:38:48.085Z,40.78
2023-04-25T16:41:14.559Z,42.78
2023-04-25T16:43:40.843Z,41.50
2023-04-25T16:46:07.054Z,41.35
2023-04-25T16:48:33.295Z,41.63
2023-04-25T16:50:59.546Z,41.60
2023-04-25T16:53:25.776Z,42.08
2023-04-25T16:55:52.017Z,42.78
2023-04-25T16:58:18.242Z,41.31
2023-04-25T17:00:44.508Z,42.39
2023-04-25T17:03:11.082Z,40.11
2023-04-25T17:05:37.405Z,43.43
2023-04-25T17:08:03.648Z,43.44
2023-04-25T17:10:29.931Z,42.86
2023-04-25T17:12:56.186Z,42.28
2023-04-25T17:15:22.409Z,44.47
2023-04-25T17:17:48.674Z,42.37
2023-04-25T17:20:14.978Z,43.55
2023-04-25T17:22:41.239Z,41.94
2023-04-25T17:25:07.552Z,44.62
2023-04-25T17:27:33.856Z,44.30
2023-04-25T17:30:00.213Z,43.16
2023-04-25T17:32:26.511Z,42.87
2023-04-25T17:34:52.773Z,41.31
2023-04-25T17:37:19.015Z,42.71
2023-04-25T17:39:45.269Z,43.31
2023-04-25T17:42:11.527Z,44.25
2023-04-25T17:44:37.804Z,44.28
2023-04-25T17:47:04.377Z,45.08
2023-04-25T17:49:31.382Z,45.00
2023-04-25T17:51:57.616Z,45.74
2023-04-25T17:54:23.842Z,45.06
2023-04-25T17:56:50.124Z,46.33
2023-04-25T17:59:16.420Z,46.94
2023-04-25T18:01:47.667Z,47.41
2023-04-25T18:04:14.398Z,49.59
2023-04-25T18:06:40.658Z,51.67
2023-04-25T18:09:06.939Z,50.95
2023-04-25T18:11:33.233Z,50.47
2023-04-25T18:13:59.467Z,50.69
2023-04-25T18:16:25.723Z,49.25
2023-04-25T18:18:52.248Z,49.12
2023-04-25T18:21:18.811Z,49.08
2023-04-25T18:23:45.126Z,49.27
2023-04-25T18:26:11.432Z,49.61
2023-04-25T18:28:37.676Z,48.45
2023-04-25T18:31:03.984Z,48.85
2023-04-25T18:33:30.266Z,48.48
2023-04-25T18:35:59.139Z,47.36
2023-04-25T18:38:35.577Z,48.09
2023-04-25T18:41:18.235Z,48.06
2023-04-25T18:43:48.769Z,47.75
2023-04-25T18:46:15.170Z,48.19
2023-04-25T18:48:41.453Z,48.54
2023-04-25T18:51:07.758Z,49.13
2023-04-25T18:53:34.018Z,48.62
2023-04-25T18:56:00.262Z,47.92
2023-04-25T18:58:26.536Z,47.27
2023-04-25T19:00:52.936Z,46.81
2023-04-25T19:03:19.430Z,47.02
2023-04-25T19:05:45.887Z,47.81
2023-04-25T19:08:12.183Z,46.45
2023-04-25T19:10:38.408Z,46.30
2023-04-25T19:13:04.641Z,44.42
2023-04-25T19:15:30.863Z,44.23
2023-04-25T19:17:57.125Z,45.71
2023-04-25T19:20:23.389Z,46.70
2023-04-25T19:22:49.630Z,46.46
2023-04-25T19:25:15.875Z,47.93
2023-04-25T19:27:42.122Z,48.42
2023-04-25T19:30:08.400Z,47.11
2023-04-25T19:32:34.731Z,46.68
2023-04-25T19:35:00.982Z,46.70
2023-04-25T19:37:27.237Z,46.81
2023-04-25T19:39:53.496Z,46.96
2023-04-25T19:42:19.738Z,47.94
2023-04-25T19:44:45.985Z,48.16
2023-04-25T19:47:12.252Z,48.14
2023-04-25T19:49:38.528Z,47.81
2023-04-25T19:52:04.873Z,46.33
2023-04-25T19:54:31.108Z,47.25
2023-04-25T19:56:57.352Z,48.11
2023-04-25T19:59:23.596Z,49.09
2023-04-25T20:01:49.857Z,49.45
2023-04-25T20:04:16.130Z,49.05
2023-04-25T20:06:42.380Z,48.65
2023-04-25T20:09:08.600Z,49.27
2023-04-25T20:11:34.834Z,48.67
2023-04-25T20:14:01.097Z,49.41
2023-04-25T20:16:27.452Z,49.45
2023-04-25T20:18:54.190Z,48.29
2023-04-25T20:21:20.724Z,49.02
2023-04-25T20:23:46.973Z,49.53
2023-04-25T20:26:13.218Z,49.77
2023-04-25T20:28:39.574Z,48.01
2023-04-25T20:31:05.830Z,47.72
2023-04-25T20:33:32.152Z,47.84
2023-04-25T20:35:58.407Z,48.50
2023-04-25T20:38:24.656Z,48.83
2023-04-25T20:40:50.895Z,49.05
2023-04-25T20:43:17.123Z,49.63
2023-04-25T20:45:43.401Z,50.98
2023-04-25T20:48:09.654Z,50.81
2023-04-25T20:50:36.111Z,51.82
2023-04-25T20:53:02.385Z,51.07
2023-04-25T20:55:28.627Z,50.73
2023-04-25T20:57:54.864Z,50.57
2023-04-25T21:00:21.098Z,50.28
2023-04-25T21:02:47.602Z,49.07
2023-04-25T21:05:14.069Z,47.95
2023-04-25T21:07:40.307Z,47.80
2023-04-25T21:10:06.544Z,48.24
2023-04-25T21:12:32.802Z,49.29
2023-04-25T21:14:59.069Z,49.36
2023-04-25T21:17:25.346Z,49.21
2023-04-25T21:19:51.585Z,50.28
2023-04-25T21:22:17.848Z,50.46
2023-04-25T21:24:44.101Z,50.01
2023-04-25T21:27:10.347Z,49.03
2023-04-25T21:29:36.588Z,49.16
2023-04-25T21:32:02.824Z,49.51
2023-04-25T21:34:29.053Z,48.69
2023-04-25T21:36:55.292Z,48.69
2023-04-25T21:39:21.515Z,48.92
2023-04-25T21:41:47.776Z,48.67
2023-04-25T21:44:14.005Z,47.68
2023-04-25T21:46:40.263Z,47.39
2023-04-25T21:49:06.532Z,49.56
2023-04-25T21:51:32.803Z,48.15
2023-04-25T21:53:59.059Z,50.19
2023-04-25T21:56:25.278Z,49.24
2023-04-25T21:58:51.755Z,50.25
2023-04-25T22:01:18.114Z,50.00
2023-04-25T22:03:44.738Z,49.89
2023-04-25T22:06:11.116Z,50.05
2023-04-25T22:08:37.332Z,47.95
2023-04-25T22:11:03.604Z,46.79
2023-04-25T22:13:29.847Z,46.51
2023-04-25T22:15:56.165Z,47.31
2023-04-25T22:18:22.426Z,48.25
2023-04-25T22:20:48.669Z,50.96
2023-04-25T22:23:14.910Z,52.19
2023-04-25T22:25:41.148Z,51.67
2023-04-25T22:28:07.365Z,51.68
2023-04-25T22:30:33.587Z,52.40
2023-04-25T22:32:59.885Z,53.47
2023-04-25T22:35:26.152Z,52.89
2023-04-25T22:37:52.448Z,53.24
2023-04-25T22:40:18.673Z,52.89
2023-04-25T22:42:44.923Z,52.12
2023-04-25T22:45:11.236Z,52.56
2023-04-25T22:47:37.543Z,51.06
2023-04-25T22:50:03.792Z,50.48
2023-04-25T22:52:30.026Z,49.90
2023-04-25T22:54:56.245Z,49.73
2023-04-25T22:57:22.484Z,49.65
2023-04-25T22:59:48.742Z,48.56
2023-04-25T23:02:15.144Z,48.72
2023-04-25T23:04:41.439Z,48.52
2023-04-25T23:07:07.699Z,49.03
2023-04-25T23:09:33.952Z,48.71
2023-04-25T23:12:00.193Z,48.94
2023-04-25T23:14:26.419Z,50.37
2023-04-25T23:16:52.757Z,51.04
2023-04-25T23:19:19.023Z,51.55
2023-04-25T23:21:45.272Z,50.66
2023-04-25T23:24:11.512Z,50.40
2023-04-25T23:26:37.765Z,49.80
2023-04-25T23:29:04.016Z,48.96
2023-04-25T23:31:30.259Z,49.15
2023-04-25T23:33:56.526Z,49.66
2023-04-25T23:36:22.788Z,50.87
2023-04-25T23:38:49.078Z,49.28
2023-04-25T23:41:15.317Z,50.38
2023-04-25T23:43:41.564Z,49.96
2023-04-25T23:46:08.670Z,49.83
2023-04-25T23:48:34.959Z,49.76
2023-04-25T23:51:01.192Z,49.68
2023-04-25T23:53:27.444Z,50.05
2023-04-25T23:55:53.690Z,50.24
2023-04-25T23:58:19.915Z,49.70
